createdAt,value
2023-03-06T00:02:42.031Z,2.25
2023-03-06T00:05:44.878Z,2.25
2023-03-06T00:08:47.529Z,2.22
2023-03-06T00:11:50.111Z,2.19
2023-03-06T00:14:52.681Z,2.20
2023-03-06T00:17:56.538Z,2.06
2023-03-06T00:20:59.319Z,2.29
2023-03-06T00:24:01.929Z,2.32
2023-03-06T00:27:04.756Z,2.30
2023-03-06T00:30:14.237Z,2.35
2023-03-06T00:33:17.993Z,2.34
2023-03-06T00:36:20.756Z,2.31
2023-03-06T00:39:23.683Z,2.33
2023-03-06T00:42:26.146Z,2.35
2023-03-06T00:45:28.847Z,2.39
2023-03-06T00:48:33.119Z,2.32
2023-03-06T00:51:35.712Z,2.38
2023-03-06T00:54:38.349Z,2.42
2023-03-06T00:57:41.003Z,2.38
2023-03-06T01:00:43.851Z,2.28
2023-03-06T01:03:46.426Z,2.32
2023-03-06T01:06:49.491Z,2.42
2023-03-06T01:09:52.036Z,2.30
2023-03-06T01:12:55.166Z,2.13
2023-03-06T01:16:06.965Z,2.21
2023-03-06T01:19:09.813Z,2.15
2023-03-06T01:22:12.408Z,2.03
2023-03-06T01:25:15.114Z,2.02
2023-03-06T01:28:18.487Z,1.97
2023-03-06T01:31:21.038Z,1.98
2023-03-06T01:34:23.682Z,1.92
2023-03-06T01:37:26.202Z,1.99
2023-03-06T01:40:31.899Z,1.93
2023-03-06T01:43:39.564Z,1.81
2023-03-06T01:46:43.904Z,1.72
2023-03-06T01:49:46.435Z,1.71
2023-03-06T01:52:52.610Z,1.71
2023-03-06T01:55:55.423Z,1.80
2023-03-06T01:58:58.519Z,1.73
2023-03-06T02:02:02.971Z,1.75
2023-03-06T02:05:06.954Z,1.58
2023-03-06T02:08:14.987Z,1.56
2023-03-06T02:11:20.627Z,1.61
2023-03-06T02:14:23.551Z,1.78
2023-03-06T02:17:27.097Z,1.77
2023-03-06T02:20:38.249Z,1.70
2023-03-06T02:23:48.147Z,1.75
2023-03-06T02:26:51.468Z,1.66
2023-03-06T02:29:55.001Z,1.72
2023-03-06T02:32:58.394Z,1.65
2023-03-06T02:36:04.106Z,1.57
2023-03-06T02:39:06.956Z,1.55
2023-03-06T02:42:10.628Z,1.48
2023-03-06T02:45:14.318Z,1.44
2023-03-06T02:48:18.579Z,1.40
2023-03-06T02:51:21.872Z,1.35
2023-03-06T02:54:25.339Z,1.38
2023-03-06T02:57:27.875Z,1.52
2023-03-06T03:00:32.885Z,1.62
2023-03-06T03:03:38.206Z,1.49
2023-03-06T03:06:41.058Z,1.45
2023-03-06T03:09:43.724Z,1.44
2023-03-06T03:12:46.647Z,1.49
2023-03-06T03:16:11.389Z,1.47
2023-03-06T03:19:14.446Z,1.45
2023-03-06T03:22:19.063Z,1.47
2023-03-06T03:25:25.278Z,1.52
2023-03-06T03:28:30.709Z,1.56
2023-03-06T03:31:33.447Z,1.58
2023-03-06T03:34:37.537Z,1.55
2023-03-06T03:37:41.714Z,1.58
2023-03-06T03:40:44.964Z,1.56
2023-03-06T03:43:47.797Z,1.38
2023-03-06T03:46:50.933Z,1.56
2023-03-06T03:49:57.110Z,1.61
2023-03-06T03:53:00.657Z,1.54
2023-03-06T03:56:04.006Z,1.56
2023-03-06T03:59:08.994Z,1.47
2023-03-06T04:02:18.431Z,1.62
2023-03-06T04:05:28.798Z,1.71
2023-03-06T04:08:32.012Z,1.76
2023-03-06T04:11:34.556Z,1.82
2023-03-06T04:14:37.202Z,1.74
2023-03-06T04:17:40.428Z,1.60
2023-03-06T04:20:48.217Z,1.55
2023-03-06T04:23:50.914Z,1.48
2023-03-06T04:26:53.617Z,1.45
2023-03-06T04:29:56.586Z,1.48
2023-03-06T04:32:59.565Z,1.58
2023-03-06T04:36:02.833Z,1.56
2023-03-06T04:39:07.774Z,1.54
2023-03-06T04:42:10.867Z,1.55
2023-03-06T04:45:13.925Z,1.57
2023-03-06T04:48:18.374Z,1.58
2023-03-06T04:51:21.239Z,1.64
2023-03-06T04:54:23.734Z,1.63
2023-03-06T04:57:26.352Z,1.70
2023-03-06T05:00:32.131Z,1.66
2023-03-06T05:03:34.858Z,1.63
2023-03-06T05:06:37.403Z,1.63
2023-03-06T05:09:40.001Z,1.79
2023-03-06T05:12:42.896Z,1.90
2023-03-06T05:15:45.439Z,1.89
2023-03-06T05:18:50.509Z,1.82
2023-03-06T05:21:53.276Z,1.98
2023-03-06T05:24:55.899Z,1.77
2023-03-06T05:27:58.575Z,1.89
2023-03-06T05:31:03.404Z,1.85
2023-03-06T05:34:06.049Z,1.82
2023-03-06T05:37:08.971Z,1.80
2023-03-06T05:40:12.229Z,1.81
2023-03-06T05:43:14.838Z,1.78
2023-03-06T05:46:17.421Z,1.81
2023-03-06T05:49:20.024Z,1.81
2023-03-06T05:52:22.719Z,1.86
2023-03-06T05:55:25.466Z,1.86
2023-03-06T05:58:28.943Z,1.96
2023-03-06T06:01:31.645Z,1.97
2023-03-06T06:04:34.354Z,1.97
2023-03-06T06:07:37.002Z,2.04
2023-03-06T06:10:43.943Z,2.14
2023-03-06T06:13:48.564Z,2.16
2023-03-06T06:16:51.216Z,2.26
2023-03-06T06:19:53.812Z,2.31
2023-03-06T06:22:56.412Z,2.28
2023-03-06T06:26:04.133Z,2.69
2023-03-06T06:29:06.819Z,2.90
2023-03-06T06:32:09.449Z,3.08
2023-03-06T06:35:12.081Z,3.23
2023-03-06T06:38:14.690Z,3.29
2023-03-06T06:44:39.897Z,3.30
2023-03-06T06:47:43.311Z,3.34
2023-03-06T06:50:46.249Z,3.43
2023-03-06T06:53:52.125Z,3.55
2023-03-06T06:56:54.888Z,3.70
2023-03-06T06:59:57.467Z,3.70
2023-03-06T07:03:00.147Z,3.66
2023-03-06T07:06:03.031Z,3.64
2023-03-06T07:09:05.888Z,3.80
2023-03-06T07:12:08.814Z,3.89
2023-03-06T07:15:15.940Z,3.93
2023-03-06T07:18:21.180Z,4.13
2023-03-06T07:21:23.804Z,4.18
2023-03-06T07:24:26.829Z,4.44
2023-03-06T07:27:29.488Z,4.55
2023-03-06T07:30:32.130Z,4.65
2023-03-06T07:33:34.729Z,4.77
2023-03-06T07:36:37.243Z,4.81
2023-03-06T07:39:39.855Z,4.82
2023-03-06T07:42:42.471Z,4.83
2023-03-06T07:45:56.431Z,4.71
2023-03-06T07:48:59.181Z,4.96
2023-03-06T07:52:04.865Z,4.80
2023-03-06T07:55:08.203Z,5.48
2023-03-06T07:58:11.204Z,5.40
2023-03-06T08:01:17.310Z,5.85
2023-03-06T08:04:19.938Z,6.07
2023-03-06T08:07:23.396Z,6.10
2023-03-06T08:10:26.132Z,5.99
2023-03-06T08:13:28.812Z,6.13
2023-03-06T08:16:31.682Z,6.13
2023-03-06T08:19:34.478Z,6.05
2023-03-06T08:22:37.294Z,6.20
2023-03-06T08:25:39.977Z,6.19
2023-03-06T08:28:43.276Z,6.35
2023-03-06T08:31:46.984Z,6.17
2023-03-06T08:34:49.724Z,6.33
2023-03-06T08:37:52.324Z,6.44
2023-03-06T08:40:54.979Z,6.18
2023-03-06T08:43:57.933Z,6.43
2023-03-06T08:47:00.610Z,6.67
2023-03-06T08:50:04.011Z,6.68
2023-03-06T08:53:06.629Z,6.84
2023-03-06T08:56:19.402Z,6.79
2023-03-06T08:59:22.470Z,7.02
2023-03-06T09:02:25.395Z,7.21
2023-03-06T09:05:28.227Z,7.40
2023-03-06T09:08:30.889Z,7.49
2023-03-06T09:11:34.487Z,7.34
2023-03-06T09:14:37.453Z,7.60
2023-03-06T09:17:40.567Z,7.64
2023-03-06T09:20:43.241Z,7.74
2023-03-06T09:23:45.911Z,7.78
2023-03-06T09:26:51.440Z,7.80
2023-03-06T09:29:57.957Z,7.53
2023-03-06T09:33:01.272Z,7.51
2023-03-06T09:36:04.882Z,7.68
2023-03-06T09:39:07.861Z,7.83
2023-03-06T09:42:20.348Z,8.06
2023-03-06T09:45:22.973Z,8.14
2023-03-06T09:48:39.293Z,8.54
2023-03-06T09:52:23.613Z,8.76
2023-03-06T09:55:29.133Z,8.96
2023-03-06T09:59:04.638Z,8.60
2023-03-06T10:02:24.559Z,8.88
2023-03-06T10:05:33.065Z,9.04
2023-03-06T10:08:41.534Z,9.12
2023-03-06T10:11:53.073Z,8.90
2023-03-06T10:15:03.256Z,8.93
2023-03-06T10:18:05.894Z,9.04
2023-03-06T10:21:21.486Z,9.45
2023-03-06T10:24:30.571Z,9.73
2023-03-06T10:27:58.018Z,9.70
2023-03-06T10:31:15.502Z,9.84
2023-03-06T10:34:28.539Z,9.83
2023-03-06T10:37:32.577Z,9.48
2023-03-06T10:40:42.224Z,9.41
2023-03-06T10:44:05.579Z,9.15
2023-03-06T10:47:27.728Z,9.25
2023-03-06T10:50:31.534Z,9.35
2023-03-06T10:53:34.513Z,9.45
2023-03-06T10:56:39.948Z,9.63
2023-03-06T11:00:00.402Z,9.54
2023-03-06T11:03:16.403Z,9.73
2023-03-06T11:06:34.768Z,9.84
2023-03-06T11:09:37.492Z,10.37
2023-03-06T11:12:41.542Z,10.33
2023-03-06T11:16:01.979Z,10.30
2023-03-06T11:19:17.781Z,10.14
2023-03-06T11:22:20.363Z,10.32
2023-03-06T11:25:28.200Z,10.33
2023-03-06T11:28:33.925Z,10.32
2023-03-06T11:32:07.182Z,10.39
2023-03-06T11:35:13.904Z,10.25
2023-03-06T11:38:32.324Z,10.42
2023-03-06T11:41:54.355Z,10.64
2023-03-06T11:45:16.071Z,10.73
2023-03-06T11:48:23.809Z,10.86
2023-03-06T11:51:34.756Z,10.85
2023-03-06T11:54:37.434Z,10.63
2023-03-06T11:58:01.314Z,10.94
2023-03-06T12:01:13.755Z,10.93
2023-03-06T12:04:41.527Z,10.97
2023-03-06T12:07:53.150Z,11.08
2023-03-06T12:11:10.625Z,10.95
2023-03-06T12:14:20.445Z,11.02
2023-03-06T12:17:43.014Z,10.91
2023-03-06T12:21:00.904Z,10.89
2023-03-06T12:24:21.633Z,11.04
2023-03-06T12:27:54.219Z,11.41
2023-03-06T12:31:16.006Z,11.26
2023-03-06T12:34:26.691Z,11.23
2023-03-06T12:38:09.471Z,10.95
2023-03-06T12:41:32.143Z,10.22
2023-03-06T12:45:12.016Z,9.79
2023-03-06T12:48:25.923Z,9.61
2023-03-06T12:51:29.256Z,9.43
2023-03-06T12:54:36.297Z,9.11
2023-03-06T12:57:38.872Z,8.79
2023-03-06T13:01:05.007Z,8.76
2023-03-06T13:04:13.416Z,8.61
2023-03-06T13:07:34.019Z,8.69
2023-03-06T13:10:39.670Z,8.50
2023-03-06T13:13:44.217Z,8.53
2023-03-06T13:16:47.036Z,8.68
2023-03-06T13:19:58.495Z,8.61
2023-03-06T13:23:32.125Z,8.47
2023-03-06T13:26:34.932Z,8.44
2023-03-06T13:29:37.548Z,8.45
2023-03-06T13:32:40.335Z,8.18
2023-03-06T13:35:42.906Z,8.24
2023-03-06T13:38:45.492Z,8.31
2023-03-06T13:42:00.220Z,8.25
2023-03-06T13:45:25.727Z,8.29
2023-03-06T13:48:45.168Z,8.39
2023-03-06T13:51:54.277Z,8.31
2023-03-06T13:55:18.075Z,8.20
2023-03-06T13:58:26.652Z,8.23
2023-03-06T14:01:53.957Z,8.42
2023-03-06T14:05:03.570Z,8.25
2023-03-06T14:08:15.374Z,8.06
2023-03-06T14:11:21.543Z,7.91
2023-03-06T14:14:32.140Z,8.02
2023-03-06T14:17:38.187Z,8.12
2023-03-06T14:20:43.809Z,8.08
2023-03-06T14:23:47.322Z,7.99
2023-03-06T14:26:51.951Z,7.88
2023-03-06T14:30:09.288Z,7.79
2023-03-06T14:33:12.278Z,7.77
2023-03-06T14:36:18.004Z,7.87
2023-03-06T14:39:21.371Z,7.84
2023-03-06T14:42:28.878Z,7.62
2023-03-06T14:45:31.409Z,7.68
2023-03-06T14:48:44.547Z,7.67
2023-03-06T14:51:53.172Z,7.58
2023-03-06T14:54:55.781Z,7.64
2023-03-06T14:57:59.844Z,7.52
2023-03-06T15:01:06.244Z,7.54
2023-03-06T15:04:31.957Z,7.53
2023-03-06T15:07:35.411Z,7.49
2023-03-06T15:10:38.930Z,7.50
2023-03-06T15:13:41.555Z,7.56
2023-03-06T15:16:44.188Z,7.63
2023-03-06T15:19:48.778Z,7.58
2023-03-06T15:22:51.476Z,7.51
2023-03-06T15:25:55.631Z,7.49
2023-03-06T15:29:09.617Z,7.35
2023-03-06T15:32:29.589Z,7.37
2023-03-06T15:35:37.876Z,7.21
2023-03-06T15:38:43.379Z,7.30
2023-03-06T15:41:45.954Z,7.39
2023-03-06T15:44:53.118Z,7.37
2023-03-06T15:47:56.067Z,7.30
2023-03-06T15:50:58.692Z,7.19
2023-03-06T15:54:11.891Z,7.34
2023-03-06T15:57:25.302Z,7.45
2023-03-06T16:00:38.617Z,7.50
2023-03-06T16:03:41.174Z,7.45
2023-03-06T16:06:47.017Z,7.40
2023-03-06T16:09:49.626Z,7.37
2023-03-06T16:12:57.577Z,7.33
2023-03-06T16:16:00.214Z,7.34
2023-03-06T16:19:06.044Z,7.21
2023-03-06T16:22:10.554Z,7.17
2023-03-06T16:25:14.493Z,7.21
2023-03-06T16:28:17.671Z,7.00
2023-03-06T16:31:20.278Z,6.90
2023-03-06T16:34:23.428Z,6.66
2023-03-06T16:37:26.089Z,6.44
2023-03-06T16:40:37.733Z,6.33
2023-03-06T16:43:40.518Z,6.25
2023-03-06T16:46:46.026Z,6.39
2023-03-06T16:49:49.042Z,6.38
2023-03-06T16:52:53.032Z,6.42
2023-03-06T16:55:55.667Z,6.19
2023-03-06T16:58:58.433Z,6.02
2023-03-06T17:02:01.080Z,6.14
2023-03-06T17:05:04.709Z,6.13
2023-03-06T17:08:07.284Z,6.32
2023-03-06T17:11:09.847Z,6.18
2023-03-06T17:14:12.960Z,6.01
2023-03-06T17:17:17.238Z,5.86
2023-03-06T17:20:20.669Z,5.83
2023-03-06T17:23:28.816Z,5.72
2023-03-06T17:26:31.478Z,5.60
2023-03-06T17:29:34.193Z,5.50
2023-03-06T17:32:38.399Z,5.33
2023-03-06T17:35:41.032Z,5.32
2023-03-06T17:38:43.909Z,5.23
2023-03-06T17:41:46.611Z,5.16
2023-03-06T17:44:49.337Z,5.09
2023-03-06T17:47:55.920Z,5.19
2023-03-06T17:50:58.987Z,5.22
2023-03-06T17:54:01.921Z,5.25
2023-03-06T17:57:05.833Z,5.24
2023-03-06T18:00:09.582Z,5.22
2023-03-06T18:03:15.084Z,5.11
2023-03-06T18:06:18.799Z,5.12
2023-03-06T18:09:21.395Z,5.16
2023-03-06T18:12:24.181Z,5.16
2023-03-06T18:15:26.876Z,5.03
2023-03-06T18:18:30.236Z,5.05
2023-03-06T18:21:32.870Z,5.00
2023-03-06T18:24:36.597Z,4.95
2023-03-06T18:27:39.374Z,4.86
2023-03-06T18:30:42.521Z,4.83
2023-03-06T18:33:47.752Z,4.87
2023-03-06T18:36:52.507Z,4.91
2023-03-06T18:39:55.371Z,4.92
2023-03-06T18:42:58.588Z,4.94
2023-03-06T18:46:01.665Z,4.94
2023-03-06T18:49:05.604Z,4.89
2023-03-06T18:52:08.435Z,4.87
2023-03-06T18:55:11.368Z,4.84
2023-03-06T18:58:14.237Z,4.80
2023-03-06T19:01:17.478Z,4.72
2023-03-06T19:04:20.308Z,4.87
2023-03-06T19:07:23.918Z,5.06
2023-03-06T19:10:27.675Z,4.96
2023-03-06T19:13:31.108Z,4.83
2023-03-06T19:16:33.859Z,4.75
2023-03-06T19:19:36.670Z,4.69
2023-03-06T19:22:39.242Z,4.64
2023-03-06T19:25:41.835Z,4.55
2023-03-06T19:28:44.797Z,4.69
2023-03-06T19:31:47.655Z,4.76
2023-03-06T19:34:50.302Z,4.90
2023-03-06T19:37:53.581Z,4.83
2023-03-06T19:40:57.433Z,4.75
2023-03-06T19:44:02.698Z,4.79
2023-03-06T19:47:05.465Z,4.77
2023-03-06T19:50:09.020Z,4.77
2023-03-06T19:53:11.695Z,4.74
2023-03-06T19:56:23.615Z,4.67
2023-03-06T19:59:26.377Z,4.69
2023-03-06T20:02:29.253Z,4.82
2023-03-06T20:05:31.872Z,4.73
2023-03-06T20:08:35.388Z,4.77
2023-03-06T20:11:38.796Z,4.62
2023-03-06T20:14:41.821Z,4.56
2023-03-06T20:17:44.605Z,4.88
2023-03-06T20:21:01.299Z,4.77
2023-03-06T20:24:05.724Z,4.80
2023-03-06T20:27:08.543Z,4.80
2023-03-06T20:30:11.785Z,5.04
2023-03-06T20:33:15.482Z,4.84
2023-03-06T20:36:27.607Z,4.67
2023-03-06T20:39:30.480Z,4.66
2023-03-06T20:42:34.243Z,4.35
2023-03-06T20:45:37.093Z,4.02
2023-03-06T20:48:41.091Z,3.83
2023-03-06T20:51:44.333Z,3.63
2023-03-06T20:54:47.095Z,3.54
2023-03-06T20:57:50.981Z,3.42
2023-03-06T21:00:53.739Z,3.50
2023-03-06T21:03:57.701Z,3.47
2023-03-06T21:07:00.914Z,3.47
2023-03-06T21:10:03.767Z,3.34
2023-03-06T21:13:06.465Z,3.47
2023-03-06T21:16:14.879Z,3.48
2023-03-06T21:19:17.833Z,3.48
2023-03-06T21:22:20.358Z,3.54
2023-03-06T21:25:23.246Z,3.57
2023-03-06T21:28:26.007Z,3.56
2023-03-06T21:31:29.297Z,3.54
2023-03-06T21:34:31.891Z,3.56
2023-03-06T21:37:34.498Z,3.59
2023-03-06T21:40:37.119Z,3.59
2023-03-06T21:43:40.189Z,3.61
2023-03-06T21:46:42.769Z,3.67
2023-03-06T21:49:45.390Z,3.68
2023-03-06T21:52:48.001Z,3.62
2023-03-06T21:55:50.579Z,3.80
2023-03-06T21:58:53.411Z,3.79
2023-03-06T22:01:55.983Z,3.79
2023-03-06T22:04:58.597Z,3.74
2023-03-06T22:08:01.390Z,3.72
2023-03-06T22:11:12.813Z,3.67
2023-03-06T22:14:15.515Z,3.58
2023-03-06T22:17:18.362Z,3.67
2023-03-06T22:20:20.950Z,3.50
2023-03-06T22:23:23.730Z,3.66
2023-03-06T22:26:28.143Z,3.53
2023-03-06T22:29:30.652Z,3.58
2023-03-06T22:32:33.416Z,3.65
2023-03-06T22:35:36.132Z,3.61
2023-03-06T22:38:41.751Z,3.56
2023-03-06T22:41:44.378Z,3.50
2023-03-06T22:44:46.920Z,3.58
2023-03-06T22:47:50.799Z,3.61
2023-03-06T22:50:54.411Z,3.20
2023-03-06T22:53:57.088Z,3.59
2023-03-06T22:56:59.646Z,3.57
2023-03-06T23:00:02.280Z,3.54
2023-03-06T23:03:04.893Z,3.54
2023-03-06T23:06:11.970Z,3.59
2023-03-06T23:09:21.653Z,3.52
2023-03-06T23:12:44.188Z,3.56
2023-03-06T23:16:06.960Z,3.56
2023-03-06T23:19:28.142Z,3.37
2023-03-06T23:22:49.448Z,3.29
2023-03-06T23:26:15.987Z,3.31
2023-03-06T23:29:18.603Z,3.18
2023-03-06T23:32:21.469Z,3.31
2023-03-06T23:35:24.170Z,3.33
2023-03-06T23:38:27.311Z,3.28
2023-03-06T23:41:30.155Z,3.23
2023-03-06T23:44:34.983Z,3.26
2023-03-06T23:47:37.640Z,3.30
2023-03-06T23:50:40.513Z,3.31
2023-03-06T23:53:44.374Z,3.30
2023-03-06T23:56:46.864Z,3.30
2023-03-06T23:59:49.456Z,3.23
